createdAt,value
2019-03-04T00:00:06.844Z,10.01
2019-03-04T00:01:11.596Z,10.11
2019-03-04T00:02:10.130Z,10.09
2019-03-04T00:03:08.097Z,10.05
2019-03-04T00:04:08.384Z,9.93
2019-03-04T00:05:06.904Z,9.97
2019-03-04T00:06:06.984Z,10.05
2019-03-04T00:07:08.623Z,10.12
2019-03-04T00:08:06.824Z,10.04
2019-03-04T00:09:06.933Z,10.12
2019-03-04T00:10:07.596Z,9.97
2019-03-04T00:11:10.667Z,10.12
2019-03-04T00:12:08.730Z,10.07
2019-03-04T00:13:06.696Z,10.08
2019-03-04T00:14:06.801Z,10.17
2019-03-04T00:15:06.714Z,10.11
2019-03-04T00:16:06.766Z,10.09
2019-03-04T00:17:06.821Z,10.15
2019-03-04T00:18:07.314Z,10.14
2019-03-04T00:19:06.643Z,10.18
2019-03-04T00:20:07.783Z,10.14
2019-03-04T00:21:06.745Z,10.07
2019-03-04T00:22:09.211Z,10.09
2019-03-04T00:23:07.601Z,10.12
2019-03-04T00:24:06.640Z,10.15
2019-03-04T00:25:06.688Z,10.11
2019-03-04T00:26:06.626Z,10.02
2019-03-04T00:27:06.760Z,10.07
2019-03-04T00:28:06.629Z,10.17
2019-03-04T00:29:06.625Z,10.02
2019-03-04T00:30:06.595Z,10.08
2019-03-04T00:31:06.560Z,10.04
2019-03-04T00:32:06.746Z,10.07
2019-03-04T00:33:06.626Z,10.12
2019-03-04T00:34:06.559Z,9.99
2019-03-04T00:35:06.577Z,10.09
2019-03-04T00:36:06.532Z,9.99
2019-03-04T00:37:06.548Z,10.01
2019-03-04T00:38:06.682Z,10.09
2019-03-04T00:39:06.594Z,10.05
2019-03-04T00:40:07.313Z,10.12
2019-03-04T00:41:07.495Z,10.04
2019-03-04T00:42:06.488Z,10.02
2019-03-04T00:43:06.471Z,10.07
2019-03-04T00:44:06.487Z,9.94
2019-03-04T00:45:06.509Z,10.04
2019-03-04T00:46:06.549Z,9.97
2019-03-04T00:47:06.456Z,9.96
2019-03-04T00:48:06.532Z,9.94
2019-03-04T00:49:06.471Z,9.90
2019-03-04T00:50:07.496Z,9.99
2019-03-04T00:51:07.305Z,10.02
2019-03-04T00:52:10.125Z,10.04
2019-03-04T00:53:06.503Z,9.96
2019-03-04T00:54:06.434Z,10.05
2019-03-04T00:55:06.411Z,10.04
2019-03-04T00:56:06.428Z,10.02
2019-03-04T00:57:06.390Z,9.93
2019-03-04T00:58:08.105Z,9.97
2019-03-04T00:59:06.583Z,10.07
2019-03-04T01:00:06.471Z,9.99
2019-03-04T01:01:06.459Z,10.01
2019-03-04T01:02:06.567Z,10.07
2019-03-04T01:03:06.380Z,10.07
2019-03-04T01:04:06.470Z,10.05
2019-03-04T01:05:06.335Z,10.02
2019-03-04T01:06:06.394Z,10.07
2019-03-04T01:07:06.354Z,10.08
2019-03-04T01:08:06.325Z,9.96
2019-03-04T01:09:06.367Z,9.97
2019-03-04T01:10:06.313Z,10.12
2019-03-04T01:11:06.331Z,10.01
2019-03-04T01:12:06.356Z,9.94
2019-03-04T01:13:06.332Z,9.99
2019-03-04T01:14:06.331Z,9.94
2019-03-04T01:15:06.330Z,9.87
2019-03-04T01:16:06.347Z,9.83
2019-03-04T01:17:06.287Z,9.84
2019-03-04T01:18:06.457Z,9.93
2019-03-04T01:19:06.302Z,10.02
2019-03-04T01:20:06.292Z,9.89
2019-03-04T01:21:06.248Z,9.90
2019-03-04T01:22:06.232Z,9.84
2019-03-04T01:23:06.253Z,9.71
2019-03-04T01:24:06.395Z,9.68
2019-03-04T01:25:07.735Z,9.56
2019-03-04T01:26:06.235Z,9.58
2019-03-04T01:27:07.192Z,9.60
2019-03-04T01:28:07.296Z,9.58
2019-03-04T01:29:06.217Z,9.58
2019-03-04T01:30:06.263Z,9.75
2019-03-04T01:31:06.178Z,9.74
2019-03-04T01:32:06.207Z,9.74
2019-03-04T01:33:06.179Z,9.65
2019-03-04T01:34:06.179Z,9.60
2019-03-04T01:35:06.240Z,9.71
2019-03-04T01:36:06.342Z,9.69
2019-03-04T01:37:06.180Z,9.66
2019-03-04T01:38:06.139Z,9.68
2019-03-04T01:39:06.123Z,9.68
2019-03-04T01:40:06.127Z,9.65
2019-03-04T01:41:06.135Z,9.65
2019-03-04T01:42:06.238Z,9.69
2019-03-04T01:43:06.210Z,9.72
2019-03-04T01:44:06.182Z,9.75
2019-03-04T01:45:06.192Z,9.81
2019-03-04T01:46:07.305Z,9.83
2019-03-04T01:47:06.142Z,9.97
2019-03-04T01:48:06.076Z,9.99
2019-03-04T01:49:07.680Z,9.93
2019-03-04T01:50:06.090Z,9.96
2019-03-04T01:51:06.101Z,10.04
2019-03-04T01:52:06.073Z,10.11
2019-03-04T01:53:06.100Z,10.04
2019-03-04T01:54:06.132Z,10.12
2019-03-04T01:55:06.314Z,10.05
2019-03-04T01:56:06.174Z,10.07
2019-03-04T01:57:06.082Z,10.07
2019-03-04T01:58:06.668Z,10.08
2019-03-04T01:59:06.040Z,10.14
2019-03-04T02:00:06.072Z,10.11
2019-03-04T02:01:06.033Z,10.05
2019-03-04T02:02:06.742Z,10.14
2019-03-04T02:03:06.020Z,10.09
2019-03-04T02:04:05.992Z,10.08
2019-03-04T02:05:06.100Z,10.18
2019-03-04T02:06:06.613Z,10.17
2019-03-04T02:07:06.123Z,10.14
2019-03-04T02:08:05.979Z,10.15
2019-03-04T02:09:05.959Z,10.27
2019-03-04T02:10:06.764Z,10.25
2019-03-04T02:11:05.970Z,10.23
2019-03-04T02:12:05.923Z,10.30
2019-03-04T02:13:06.788Z,10.23
2019-03-04T02:14:05.990Z,10.22
2019-03-04T02:15:06.017Z,10.22
2019-03-04T02:16:05.911Z,10.18
2019-03-04T02:17:05.984Z,10.26
2019-03-04T02:18:05.951Z,10.18
2019-03-04T02:19:06.614Z,10.25
2019-03-04T02:20:05.982Z,10.23
2019-03-04T02:21:05.981Z,10.26
2019-03-04T02:22:07.276Z,10.29
2019-03-04T02:23:06.069Z,10.23
2019-03-04T02:24:05.941Z,10.23
2019-03-04T02:25:05.885Z,10.15
2019-03-04T02:26:05.949Z,10.09
2019-03-04T02:27:06.099Z,10.14
2019-03-04T02:28:05.916Z,10.09
2019-03-04T02:29:05.958Z,10.02
2019-03-04T02:30:05.901Z,10.07
2019-03-04T02:31:07.126Z,10.11
2019-03-04T02:32:07.016Z,10.08
2019-03-04T02:33:07.949Z,10.09
2019-03-04T02:34:05.995Z,10.18
2019-03-04T02:35:05.825Z,10.11
2019-03-04T02:36:05.882Z,10.17
2019-03-04T02:37:05.826Z,10.18
2019-03-04T02:38:07.643Z,10.15
2019-03-04T02:39:07.419Z,10.15
2019-03-04T02:40:05.827Z,10.23
2019-03-04T02:41:05.831Z,10.27
2019-03-04T02:42:06.814Z,10.25
2019-03-04T02:43:05.748Z,10.23
2019-03-04T02:44:05.799Z,10.29
2019-03-04T02:45:05.764Z,10.22
2019-03-04T02:46:05.749Z,10.15
2019-03-04T02:47:05.714Z,10.30
2019-03-04T02:48:05.762Z,10.18
2019-03-04T02:49:06.907Z,10.15
2019-03-04T02:50:05.779Z,10.18
2019-03-04T02:51:05.706Z,10.23
2019-03-04T02:52:07.619Z,10.26
2019-03-04T02:53:05.758Z,10.22
2019-03-04T02:54:05.810Z,10.15
2019-03-04T02:55:05.712Z,10.29
2019-03-04T02:56:05.691Z,10.23
2019-03-04T02:57:05.653Z,10.30
2019-03-04T02:58:05.666Z,10.32
2019-03-04T02:59:07.136Z,10.40
2019-03-04T03:00:06.551Z,10.41
2019-03-04T03:01:07.162Z,10.41
2019-03-04T03:02:06.546Z,10.47
2019-03-04T03:03:05.675Z,10.47
2019-03-04T03:04:06.276Z,10.45
2019-03-04T03:05:05.656Z,10.53
2019-03-04T03:06:05.739Z,10.52
2019-03-04T03:07:05.613Z,10.70
2019-03-04T03:08:06.834Z,10.68
2019-03-04T03:09:05.741Z,10.71
2019-03-04T03:10:10.126Z,10.73
2019-03-04T03:11:06.853Z,10.73
2019-03-04T03:12:05.822Z,10.84
2019-03-04T03:13:05.755Z,10.78
2019-03-04T03:14:05.596Z,10.78
2019-03-04T03:15:06.166Z,10.73
2019-03-04T03:16:05.559Z,10.88
2019-03-04T03:17:05.547Z,10.82
2019-03-04T03:18:06.450Z,10.78
2019-03-04T03:19:05.779Z,10.88
2019-03-04T03:20:05.555Z,10.94
2019-03-04T03:21:06.123Z,10.85
2019-03-04T03:22:05.634Z,10.86
2019-03-04T03:23:05.589Z,10.88
2019-03-04T03:24:05.852Z,10.92
2019-03-04T03:25:05.447Z,10.74
2019-03-04T03:26:06.287Z,10.86
2019-03-04T03:27:06.518Z,10.85
2019-03-04T03:28:05.462Z,10.76
2019-03-04T03:29:05.438Z,10.76
2019-03-04T03:30:06.281Z,10.70
2019-03-04T03:31:06.633Z,10.55
2019-03-04T03:32:05.548Z,10.55
2019-03-04T03:33:09.035Z,10.53
2019-03-04T03:34:08.639Z,10.55
2019-03-04T03:35:08.045Z,10.36
2019-03-04T03:36:09.131Z,10.44
2019-03-04T03:37:05.394Z,10.52
2019-03-04T03:38:06.311Z,10.47
2019-03-04T03:39:06.625Z,10.45
2019-03-04T03:40:06.478Z,10.45
2019-03-04T03:41:05.484Z,10.55
2019-03-04T03:42:05.349Z,10.44
2019-03-04T03:43:06.387Z,10.45
2019-03-04T03:44:06.347Z,10.38
2019-03-04T03:45:05.330Z,10.52
2019-03-04T03:46:05.469Z,10.40
2019-03-04T03:47:07.179Z,10.36
2019-03-04T03:48:05.469Z,10.42
2019-03-04T03:49:05.423Z,10.45
2019-03-04T03:50:06.439Z,10.59
2019-03-04T03:51:05.273Z,10.55
2019-03-04T03:52:05.253Z,10.60
2019-03-04T03:53:05.315Z,10.52
2019-03-04T03:54:06.270Z,10.44
2019-03-04T03:55:06.130Z,10.59
2019-03-04T03:56:06.217Z,10.63
2019-03-04T03:57:06.647Z,10.53
2019-03-04T03:58:05.389Z,10.56
2019-03-04T03:59:05.275Z,10.45
2019-03-04T04:00:05.300Z,10.53
2019-03-04T04:01:06.627Z,10.51
2019-03-04T04:02:06.198Z,10.55
2019-03-04T04:03:05.556Z,10.51
2019-03-04T04:04:05.219Z,10.52
2019-03-04T04:05:05.182Z,10.56
2019-03-04T04:06:05.212Z,10.55
2019-03-04T04:07:05.172Z,10.56
2019-03-04T04:08:05.155Z,10.45
2019-03-04T04:09:05.151Z,10.42
2019-03-04T04:10:05.168Z,10.41
2019-03-04T04:11:05.154Z,10.41
2019-03-04T04:12:05.164Z,10.32
2019-03-04T04:13:07.308Z,10.34
2019-03-04T04:14:05.276Z,10.38
2019-03-04T04:15:05.347Z,10.32
2019-03-04T04:16:06.229Z,10.33
2019-03-04T04:17:07.261Z,10.29
2019-03-04T04:18:05.250Z,10.34
2019-03-04T04:19:05.472Z,10.36
2019-03-04T04:20:07.636Z,10.34
2019-03-04T04:21:05.158Z,10.30
2019-03-04T04:22:07.137Z,10.32
2019-03-04T04:23:06.136Z,10.40
2019-03-04T04:24:07.243Z,10.33
2019-03-04T04:25:05.243Z,10.34
2019-03-04T04:26:06.703Z,10.26
2019-03-04T04:27:05.785Z,10.27
2019-03-04T04:28:07.320Z,10.11
2019-03-04T04:29:05.138Z,10.15
2019-03-04T04:30:05.197Z,10.22
2019-03-04T04:31:05.106Z,10.26
2019-03-04T04:32:05.638Z,10.20
2019-03-04T04:33:05.641Z,10.15
2019-03-04T04:34:05.210Z,10.18
2019-03-04T04:35:04.984Z,10.29
2019-03-04T04:36:05.021Z,10.34
2019-03-04T04:37:05.062Z,10.32
2019-03-04T04:38:05.023Z,10.30
2019-03-04T04:39:05.064Z,10.30
2019-03-04T04:40:04.959Z,10.30
2019-03-04T04:41:04.945Z,10.36
2019-03-04T04:42:04.941Z,10.42
2019-03-04T04:43:04.959Z,10.36
2019-03-04T04:44:05.070Z,10.40
2019-03-04T04:45:05.018Z,10.27
2019-03-04T04:46:04.882Z,10.34
2019-03-04T04:47:04.882Z,10.44
2019-03-04T04:48:04.881Z,10.47
2019-03-04T04:49:05.853Z,10.48
2019-03-04T04:50:04.944Z,10.53
2019-03-04T04:51:04.989Z,10.47
2019-03-04T04:52:04.937Z,10.53
2019-03-04T04:53:07.138Z,10.73
2019-03-04T04:54:04.922Z,10.63
2019-03-04T04:55:04.939Z,10.63
2019-03-04T04:56:06.570Z,10.81
2019-03-04T04:57:07.281Z,10.70
2019-03-04T04:58:48.687Z,10.73
2019-03-04T04:59:05.031Z,10.85
2019-03-04T05:00:06.234Z,10.91
2019-03-04T05:01:05.810Z,11.00
2019-03-04T05:02:04.809Z,11.07
2019-03-04T05:03:04.815Z,11.04
2019-03-04T05:04:04.818Z,11.10
2019-03-04T05:05:04.816Z,11.10
2019-03-04T05:06:04.867Z,11.11
2019-03-04T05:07:04.790Z,11.07
2019-03-04T05:08:04.796Z,11.03
2019-03-04T05:09:04.790Z,10.92
2019-03-04T05:10:04.766Z,10.96
2019-03-04T05:11:04.759Z,10.88
2019-03-04T05:12:04.756Z,11.03
2019-03-04T05:13:04.747Z,10.89
2019-03-04T05:14:04.760Z,11.03
2019-03-04T05:15:04.783Z,10.86
2019-03-04T05:16:04.748Z,10.88
2019-03-04T05:17:04.710Z,10.88
2019-03-04T05:18:04.721Z,10.97
2019-03-04T05:19:04.721Z,10.96
2019-03-04T05:20:04.703Z,10.74
2019-03-04T05:21:04.747Z,10.71
2019-03-04T05:22:05.662Z,10.79
2019-03-04T05:23:04.665Z,10.82
2019-03-04T05:24:04.674Z,10.73
2019-03-04T05:25:04.706Z,10.70
2019-03-04T05:26:04.706Z,10.81
2019-03-04T05:27:04.664Z,10.89
2019-03-04T05:28:04.658Z,10.88
2019-03-04T05:29:04.610Z,10.92
2019-03-04T05:30:04.642Z,10.82
2019-03-04T05:31:04.626Z,10.97
2019-03-04T05:32:04.603Z,10.91
2019-03-04T05:33:04.635Z,10.84
2019-03-04T05:34:04.611Z,10.81
2019-03-04T05:35:04.606Z,10.84
2019-03-04T05:36:04.594Z,10.99
2019-03-04T05:37:04.583Z,11.02
2019-03-04T05:38:04.608Z,11.02
2019-03-04T05:39:04.570Z,10.96
2019-03-04T05:40:04.580Z,10.86
2019-03-04T05:41:04.556Z,10.89
2019-03-04T05:42:04.552Z,10.92
2019-03-04T05:43:04.575Z,10.84
2019-03-04T05:44:04.582Z,10.91
2019-03-04T05:45:04.563Z,10.81
2019-03-04T05:46:04.545Z,10.94
2019-03-04T05:47:04.521Z,10.81
2019-03-04T05:48:04.507Z,10.67
2019-03-04T05:49:04.513Z,10.67
2019-03-04T05:50:04.508Z,10.74
2019-03-04T05:51:04.484Z,10.81
2019-03-04T05:52:04.465Z,10.81
2019-03-04T05:53:04.464Z,10.82
2019-03-04T05:54:04.461Z,10.79
2019-03-04T05:55:04.464Z,10.88
2019-03-04T05:56:04.432Z,10.76
2019-03-04T05:57:04.435Z,10.88
2019-03-04T05:58:04.423Z,10.91
2019-03-04T05:59:04.469Z,10.85
2019-03-04T06:00:04.427Z,10.76
2019-03-04T06:01:04.409Z,10.79
2019-03-04T06:02:04.392Z,10.73
2019-03-04T06:03:04.398Z,10.82
2019-03-04T06:04:04.371Z,10.88
2019-03-04T06:05:04.372Z,10.89
2019-03-04T06:06:05.371Z,10.94
2019-03-04T06:07:04.365Z,10.79
2019-03-04T06:08:04.349Z,10.74
2019-03-04T06:09:04.352Z,10.74
2019-03-04T06:10:04.345Z,10.74
2019-03-04T06:11:04.332Z,10.78
2019-03-04T06:12:04.327Z,10.81
2019-03-04T06:13:04.336Z,10.84
2019-03-04T06:14:04.318Z,10.81
2019-03-04T06:15:04.317Z,10.70
2019-03-04T06:16:04.316Z,10.81
2019-03-04T06:17:04.305Z,10.91
2019-03-04T06:18:04.288Z,10.91
2019-03-04T06:19:04.296Z,10.71
2019-03-04T06:20:04.279Z,10.82
2019-03-04T06:21:04.291Z,10.84
2019-03-04T06:22:04.289Z,10.85
2019-03-04T06:23:04.243Z,10.71
2019-03-04T06:24:04.242Z,10.71
2019-03-04T06:25:07.346Z,10.81
2019-03-04T06:26:04.234Z,10.78
2019-03-04T06:27:04.371Z,10.78
2019-03-04T06:28:04.274Z,10.74
2019-03-04T06:29:04.322Z,10.92
2019-03-04T06:30:04.286Z,10.96
2019-03-04T06:31:04.333Z,10.91
2019-03-04T06:32:04.274Z,10.79
2019-03-04T06:33:04.234Z,10.92
2019-03-04T06:34:04.331Z,10.89
2019-03-04T06:35:04.344Z,10.88
2019-03-04T06:36:04.306Z,10.82
2019-03-04T06:37:04.253Z,10.84
2019-03-04T06:38:04.279Z,10.84
2019-03-04T06:39:04.307Z,10.91
2019-03-04T06:40:04.283Z,10.86
2019-03-04T06:41:04.321Z,10.97
2019-03-04T06:42:04.280Z,10.96
2019-03-04T06:43:04.262Z,11.00
2019-03-04T06:44:04.233Z,11.04
2019-03-04T06:45:04.251Z,10.96
2019-03-04T06:46:04.240Z,10.89
2019-03-04T06:47:04.224Z,10.91
2019-03-04T06:48:04.705Z,10.94
2019-03-04T06:49:04.232Z,10.96
2019-03-04T06:50:04.220Z,10.96
2019-03-04T06:51:04.222Z,10.94
2019-03-04T06:52:04.213Z,10.92
2019-03-04T06:53:04.177Z,10.89
2019-03-04T06:54:04.222Z,10.91
2019-03-04T06:55:04.140Z,10.86
2019-03-04T06:56:04.182Z,10.81
2019-03-04T06:57:04.160Z,10.81
2019-03-04T06:58:04.159Z,10.88
2019-03-04T07:02:02.539Z,10.92
2019-03-04T07:04:38.205Z,10.92
2019-03-04T07:04:56.100Z,11.02
2019-03-04T07:05:56.114Z,10.99
2019-03-04T07:06:56.944Z,10.94
2019-03-04T07:07:56.120Z,10.89
2019-03-04T07:09:00.270Z,10.92
2019-03-04T07:09:56.088Z,10.94
2019-03-04T07:10:56.589Z,10.88
2019-03-04T07:11:56.081Z,11.00
2019-03-04T07:12:56.605Z,10.86
2019-03-04T07:13:56.089Z,11.00
2019-03-04T07:14:56.047Z,10.91
2019-03-04T07:15:56.104Z,10.97
2019-03-04T07:16:56.043Z,10.97
2019-03-04T07:17:56.053Z,10.96
2019-03-04T07:18:56.006Z,10.97
2019-03-04T07:19:56.157Z,10.84
2019-03-04T07:20:56.056Z,11.00
2019-03-04T07:21:56.009Z,10.92
2019-03-04T07:22:56.010Z,10.96
2019-03-04T07:23:56.587Z,10.97
2019-03-04T07:24:55.998Z,10.91
2019-03-04T07:25:56.604Z,11.02
2019-03-04T07:26:56.598Z,10.92
2019-03-04T07:27:56.409Z,10.88
2019-03-04T07:28:55.964Z,10.86
2019-03-04T07:29:56.150Z,10.89
2019-03-04T07:30:55.947Z,10.92
2019-03-04T07:31:55.941Z,10.99
2019-03-04T07:32:55.931Z,10.89
2019-03-04T07:33:55.923Z,11.02
2019-03-04T07:34:55.935Z,10.91
2019-03-04T07:35:55.940Z,10.96
2019-03-04T07:36:55.942Z,10.94
2019-03-04T07:37:55.893Z,10.86
2019-03-04T07:38:55.892Z,10.84
2019-03-04T07:39:55.887Z,10.88
2019-03-04T07:40:55.877Z,10.91
2019-03-04T07:41:55.896Z,10.85
2019-03-04T07:42:55.864Z,10.92
2019-03-04T07:43:55.850Z,10.86
2019-03-04T07:44:55.852Z,10.86
2019-03-04T07:45:55.831Z,10.86
2019-03-04T07:46:55.850Z,10.84
2019-03-04T07:47:55.831Z,10.84
2019-03-04T07:48:55.828Z,10.82
2019-03-04T07:49:55.799Z,10.84
2019-03-04T07:52:41.961Z,10.70
2019-03-04T07:52:55.805Z,10.91
2019-03-04T07:54:00.628Z,10.91
2019-03-04T07:54:55.763Z,10.84
2019-03-04T07:55:55.766Z,10.81
2019-03-04T07:56:56.629Z,10.88
2019-03-04T07:57:55.743Z,10.76
2019-03-04T07:58:55.731Z,10.82
2019-03-04T08:00:27.626Z,10.79
2019-03-04T08:00:55.722Z,10.79
2019-03-04T08:01:55.727Z,10.81
2019-03-04T08:02:55.736Z,10.82
2019-03-04T08:03:55.771Z,10.74
2019-03-04T08:04:56.317Z,10.84
2019-03-04T08:05:57.717Z,10.81
2019-03-04T08:06:56.301Z,10.86
2019-03-04T08:07:55.962Z,10.88
2019-03-04T08:08:58.470Z,10.89
2019-03-04T08:09:55.781Z,10.86
2019-03-04T08:10:57.323Z,10.91
2019-03-04T08:11:58.112Z,10.94
2019-03-04T08:12:56.152Z,10.92
2019-03-04T08:13:56.179Z,11.00
2019-03-04T08:14:55.633Z,11.00
2019-03-04T08:15:55.627Z,11.03
2019-03-04T08:16:55.619Z,11.14
2019-03-04T08:17:56.138Z,11.19
2019-03-04T08:18:55.609Z,11.21
2019-03-04T08:19:55.614Z,11.43
2019-03-04T08:20:55.606Z,11.33
2019-03-04T08:21:55.584Z,11.37
2019-03-04T08:22:55.591Z,11.49
2019-03-04T08:23:55.554Z,11.43
2019-03-04T08:24:55.564Z,11.64
2019-03-04T08:25:55.564Z,11.60
2019-03-04T08:26:55.540Z,11.60
2019-03-04T08:27:55.565Z,11.62
2019-03-04T08:28:58.705Z,11.57
2019-03-04T08:29:56.572Z,11.44
2019-03-04T08:30:55.607Z,11.37
2019-03-04T08:31:56.208Z,11.37
2019-03-04T08:32:56.998Z,11.33
2019-03-04T08:33:55.530Z,11.42
2019-03-04T08:34:55.578Z,11.44
2019-03-04T08:35:55.534Z,11.55
2019-03-04T08:36:55.522Z,11.49
2019-03-04T08:37:55.519Z,11.54
2019-03-04T08:38:55.511Z,11.60
2019-03-04T08:39:55.475Z,11.55
2019-03-04T08:40:55.494Z,11.51
2019-03-04T08:41:55.472Z,11.51
2019-03-04T08:42:55.635Z,11.61
2019-03-04T08:43:56.077Z,11.65
2019-03-04T08:44:57.149Z,11.57
2019-03-04T08:45:55.451Z,11.64
2019-03-04T08:46:55.426Z,11.61
2019-03-04T08:47:55.536Z,11.73
2019-03-04T08:48:55.978Z,11.83
2019-03-04T08:49:55.569Z,11.86
2019-03-04T08:50:55.433Z,11.82
2019-03-04T08:51:55.504Z,11.80
2019-03-04T08:52:55.980Z,11.73
2019-03-04T08:53:56.187Z,11.65
2019-03-04T08:54:56.988Z,11.61
2019-03-04T08:55:56.189Z,11.62
2019-03-04T08:57:03.591Z,11.64
2019-03-04T08:57:57.452Z,11.64
2019-03-04T08:58:57.076Z,11.58
2019-03-04T08:59:55.352Z,11.60
2019-03-04T09:00:55.338Z,11.61
2019-03-04T09:01:55.346Z,11.61
2019-03-04T09:02:55.338Z,11.51
2019-03-04T09:03:55.345Z,11.44
2019-03-04T09:04:56.149Z,11.07
2019-03-04T09:05:55.315Z,11.11
2019-03-04T09:06:55.293Z,10.97
2019-03-04T09:07:55.298Z,10.85
2019-03-04T09:08:55.297Z,10.84
2019-03-04T09:09:55.297Z,10.85
2019-03-04T09:10:55.276Z,10.70
2019-03-04T09:11:56.152Z,10.63
2019-03-04T09:12:55.306Z,10.68
2019-03-04T09:13:56.149Z,10.55
2019-03-04T09:14:55.249Z,10.42
2019-03-04T09:15:55.254Z,10.27
2019-03-04T09:16:55.229Z,10.29
2019-03-04T09:17:55.240Z,10.01
2019-03-04T09:18:55.248Z,9.97
2019-03-04T09:19:55.230Z,9.93
2019-03-04T09:20:55.224Z,9.79
2019-03-04T09:21:55.202Z,9.87
2019-03-04T09:22:55.178Z,9.86
2019-03-04T09:23:55.199Z,9.54
2019-03-04T09:24:55.200Z,8.99
2019-03-04T09:25:55.172Z,8.66
2019-03-04T09:26:55.164Z,8.37
2019-03-04T09:27:55.177Z,8.23
2019-03-04T09:28:56.006Z,8.18
2019-03-04T09:29:55.126Z,8.12
2019-03-04T09:30:55.129Z,8.01
2019-03-04T09:31:55.152Z,7.93
2019-03-04T09:32:55.130Z,7.89
2019-03-04T09:33:55.115Z,7.82
2019-03-04T09:34:55.122Z,7.74
2019-03-04T09:35:55.136Z,7.63
2019-03-04T09:36:55.126Z,7.58
2019-03-04T09:37:55.091Z,7.57
2019-03-04T09:38:55.124Z,7.45
2019-03-04T09:39:55.083Z,7.32
2019-03-04T09:40:55.661Z,7.39
2019-03-04T09:41:55.067Z,7.21
2019-03-04T09:42:55.074Z,7.17
2019-03-04T09:43:55.074Z,7.10
2019-03-04T09:44:55.083Z,7.09
2019-03-04T09:45:55.084Z,7.16
2019-03-04T09:46:55.087Z,7.10
2019-03-04T09:49:32.904Z,7.07
2019-03-04T09:50:34.095Z,7.20
2019-03-04T09:51:34.073Z,7.17
2019-03-04T09:52:34.067Z,7.16
2019-03-04T09:53:39.422Z,7.31
2019-03-04T09:54:36.045Z,7.17
2019-03-04T09:55:34.049Z,7.23
2019-03-04T09:56:34.069Z,7.23
2019-03-04T09:57:34.058Z,7.34
2019-03-04T09:58:34.031Z,7.45
2019-03-04T09:59:59.994Z,7.43
2019-03-04T10:00:34.046Z,7.64
2019-03-04T10:01:34.035Z,7.77
2019-03-04T10:02:34.019Z,7.82
2019-03-04T10:03:34.017Z,7.93
2019-03-04T10:04:34.028Z,8.00
2019-03-04T10:05:33.968Z,8.02
2019-03-04T10:06:33.998Z,8.02
2019-03-04T10:07:34.013Z,8.18
2019-03-04T10:08:33.977Z,8.22
2019-03-04T10:09:33.970Z,8.30
2019-03-04T10:10:33.961Z,8.26
2019-03-04T10:11:33.944Z,8.23
2019-03-04T10:12:33.955Z,8.23
2019-03-04T10:13:33.954Z,8.29
2019-03-04T10:14:33.965Z,8.56
2019-03-04T10:15:33.944Z,8.58
2019-03-04T10:16:33.925Z,8.56
2019-03-04T10:17:33.930Z,8.63
2019-03-04T10:18:33.902Z,8.83
2019-03-04T10:19:33.908Z,8.89
2019-03-04T10:20:33.897Z,8.94
2019-03-04T10:21:33.905Z,8.83
2019-03-04T10:22:33.886Z,9.02
2019-03-04T10:23:33.868Z,9.08
2019-03-04T10:24:41.702Z,9.24
2019-03-04T10:25:33.854Z,9.26
2019-03-04T10:26:33.895Z,9.10
2019-03-04T10:27:33.895Z,9.08
2019-03-04T10:28:33.868Z,9.14
2019-03-04T10:29:34.659Z,9.32
2019-03-04T10:30:33.871Z,9.29
2019-03-04T10:31:33.846Z,9.20
2019-03-04T10:32:33.844Z,9.13
2019-03-04T10:33:33.810Z,9.33
2019-03-04T10:34:33.827Z,9.53
2019-03-04T10:35:33.825Z,9.74
2019-03-04T10:36:33.797Z,9.79
2019-03-04T10:37:33.810Z,9.86
2019-03-04T10:38:33.782Z,9.61
2019-03-04T10:39:33.753Z,9.94
2019-03-04T10:40:34.570Z,9.99
2019-03-04T10:41:33.766Z,9.97
2019-03-04T10:42:33.690Z,9.89
2019-03-04T10:43:33.639Z,10.08
2019-03-04T10:44:37.860Z,10.26
2019-03-04T10:45:33.732Z,10.26
2019-03-04T10:46:33.735Z,10.27
2019-03-04T10:47:33.716Z,10.11
2019-03-04T10:48:33.729Z,9.96
2019-03-04T10:49:33.634Z,9.96
2019-03-04T10:50:33.674Z,9.76
2019-03-04T10:51:33.636Z,9.89
2019-03-04T10:52:33.657Z,9.90
2019-03-04T10:53:33.694Z,10.02
2019-03-04T10:54:34.185Z,10.09
2019-03-04T10:55:41.632Z,9.94
2019-03-04T10:56:35.671Z,9.87
2019-03-04T10:57:33.632Z,9.93
2019-03-04T10:58:33.653Z,9.94
2019-03-04T10:59:33.671Z,9.75
2019-03-04T11:00:33.638Z,9.68
2019-03-04T11:01:33.632Z,9.76
2019-03-04T11:02:33.610Z,9.75
2019-03-04T11:03:35.084Z,10.14
2019-03-04T11:04:34.074Z,10.40
2019-03-04T11:05:33.600Z,10.45
2019-03-04T11:06:33.587Z,10.63
2019-03-04T11:07:33.559Z,10.84
2019-03-04T11:08:33.599Z,11.02
2019-03-04T11:09:33.551Z,11.25
2019-03-04T11:10:33.577Z,11.65
2019-03-04T11:11:33.532Z,11.60
2019-03-04T11:12:33.542Z,11.51
2019-03-04T11:13:33.511Z,11.69
2019-03-04T11:14:33.497Z,11.72
2019-03-04T11:15:33.565Z,11.61
2019-03-04T11:16:33.544Z,11.64
2019-03-04T11:17:33.516Z,11.60
2019-03-04T11:18:33.504Z,11.57
2019-03-04T11:19:33.450Z,10.86
2019-03-04T11:20:33.466Z,10.81
2019-03-04T11:21:33.521Z,10.82
2019-03-04T11:22:33.524Z,10.81
2019-03-04T11:23:33.487Z,10.84
2019-03-04T11:24:34.235Z,10.76
2019-03-04T11:25:33.687Z,10.86
2019-03-04T11:26:33.456Z,10.76
2019-03-04T11:27:33.473Z,10.89
2019-03-04T11:28:33.437Z,10.82
2019-03-04T11:29:33.405Z,10.97
2019-03-04T11:30:33.442Z,10.89
2019-03-04T11:31:33.428Z,11.02
2019-03-04T11:32:33.422Z,11.03
2019-03-04T11:33:33.393Z,11.21
2019-03-04T11:34:34.088Z,11.25
2019-03-04T11:35:33.401Z,11.03
2019-03-04T11:36:33.434Z,10.96
2019-03-04T11:37:33.372Z,10.89
2019-03-04T11:38:33.376Z,10.91
2019-03-04T11:39:33.356Z,10.92
2019-03-04T11:40:33.360Z,10.79
2019-03-04T11:41:33.387Z,10.88
2019-03-04T11:42:33.304Z,10.85
2019-03-04T11:43:33.385Z,10.85
2019-03-04T11:44:33.360Z,10.88
2019-03-04T11:45:34.088Z,10.76
2019-03-04T11:46:33.367Z,10.89
2019-03-04T11:47:33.357Z,10.88
2019-03-04T11:48:33.338Z,10.92
2019-03-04T11:49:33.289Z,10.97
2019-03-04T11:50:33.269Z,11.02
2019-03-04T11:51:34.091Z,10.97
2019-03-04T11:52:33.274Z,10.74
2019-03-04T11:53:33.328Z,10.73
2019-03-04T11:54:33.239Z,10.76
2019-03-04T11:55:33.290Z,10.79
2019-03-04T11:56:33.280Z,10.79
2019-03-04T11:57:33.226Z,10.88
2019-03-04T11:58:33.267Z,10.85
2019-03-04T11:59:37.934Z,10.68
2019-03-04T12:00:34.082Z,10.74
2019-03-04T12:01:33.132Z,10.48
2019-03-04T12:02:38.973Z,10.27
2019-03-04T12:03:35.215Z,10.15
2019-03-04T12:04:33.257Z,10.04
2019-03-04T12:05:33.166Z,10.01
2019-03-04T12:06:33.154Z,9.84
2019-03-04T12:07:33.158Z,9.90
2019-03-04T12:08:33.180Z,9.96
2019-03-04T12:09:33.196Z,10.02
2019-03-04T12:10:33.199Z,9.97
2019-03-04T12:11:38.143Z,10.01
2019-03-04T12:12:35.063Z,9.79
2019-03-04T12:13:33.120Z,9.53
2019-03-04T12:14:33.048Z,9.51
2019-03-04T12:15:33.045Z,9.32
2019-03-04T12:16:33.169Z,9.08
2019-03-04T12:17:33.937Z,8.86
2019-03-04T12:18:35.018Z,8.66
2019-03-04T12:19:34.991Z,8.34
2019-03-04T12:20:33.045Z,8.08
2019-03-04T12:21:33.018Z,7.90
2019-03-04T12:22:32.984Z,7.61
2019-03-04T12:23:32.994Z,7.40
2019-03-04T12:24:32.989Z,7.21
2019-03-04T12:25:32.983Z,7.17
2019-03-04T12:26:32.986Z,7.15
2019-03-04T12:27:32.963Z,7.13
2019-03-04T12:28:32.945Z,7.03
2019-03-04T12:29:32.977Z,7.15
2019-03-04T12:30:32.929Z,7.15
2019-03-04T12:31:32.950Z,7.07
2019-03-04T12:32:32.915Z,6.99
2019-03-04T12:33:32.933Z,6.92
2019-03-04T12:34:32.935Z,6.84
2019-03-04T12:35:32.934Z,6.84
2019-03-04T12:36:32.934Z,6.69
2019-03-04T12:37:32.914Z,6.67
2019-03-04T12:38:32.912Z,6.58
2019-03-04T12:39:32.895Z,6.66
2019-03-04T12:40:32.891Z,6.61
2019-03-04T12:41:32.880Z,6.61
2019-03-04T12:42:32.894Z,6.69
2019-03-04T12:43:32.883Z,6.73
2019-03-04T12:44:32.861Z,6.81
2019-03-04T12:45:34.674Z,6.80
2019-03-04T12:46:33.852Z,7.09
2019-03-04T12:47:32.847Z,7.12
2019-03-04T12:48:32.837Z,7.25
2019-03-04T12:49:32.825Z,7.52
2019-03-04T12:50:32.811Z,7.61
2019-03-04T12:51:32.802Z,7.83
2019-03-04T12:52:32.810Z,8.10
2019-03-04T12:53:37.406Z,8.43
2019-03-04T12:54:33.784Z,8.68
2019-03-04T12:55:32.800Z,8.66
2019-03-04T12:56:32.774Z,8.68
2019-03-04T12:57:32.773Z,8.65
2019-03-04T12:58:32.758Z,8.79
2019-03-04T12:59:32.761Z,8.99
2019-03-04T13:00:32.866Z,9.29
2019-03-04T13:01:32.972Z,9.47
2019-03-04T13:02:32.877Z,9.56
2019-03-04T13:03:32.814Z,9.57
2019-03-04T13:04:32.821Z,9.78
2019-03-04T13:05:32.873Z,9.83